EDDC

Dresden Airport

Dresden, Germany
METAR EDDC 152050Z 04004KT CAVOK 19/10 Q1016
Observed Flight Rules
Jul-15 @ 20:50 UTC (17 minutes ago) Visual Flight Rules
Wind Visibility Clouds
40° at 4 knots 10,000+ meters
  • Clear skies
Temperatures Readings
Current 19°C / 66°F
Dewpoint 10°C / 50°F
Humidity 56%
Altimeter 30" Hg
Pressure 1016 hPa
Elevation 226
METAR EDDC 152050Z 04004KT CAVOK 19/10 Q1016
Observed Flight Rules
Jul-15 @ 20:50 UTC
(17 minutes ago)
VFR
Wind Visibility
40° at 4 knots 10,000+ meters
Clouds
  • Clear skies
Temperature Dewpoint
19°C / 66°F 10°C / 50°F
Humidity Altimeter Pressure
56% 30" Hg 1016 hPa